Time;durP1;ratioP1;P1;durP2;ratioP2;P2;SDS_P1;SDS_P2;PMS_P1;PMS_P2;Temp;Humidity;BMP_temperature;BMP_pressure;BME280_temperature;BME280_humidity;BME280_pressure;Samples;Min_cycle;Max_cycle;Signal;HPM_P1;HPM_P2
2022/12/30 00:01:13;;;;;;;3.83;1.73;;;;;;;6.11;95.08;98571.78;1735998;81;21024;-84
2022/12/30 00:03:39;;;;;;;3.47;1.57;;;;;;;6.16;95.10;98572.38;1734966;81;21016;-83
2022/12/30 00:06:14;;;;;;;2.75;1.98;;;;;;;6.14;94.93;98574.22;1733859;81;21048;-83
2022/12/30 00:08:48;;;;;;;6.03;3.00;;;;;;;6.09;94.85;98570.54;1727747;81;20954;-83
2022/12/30 00:11:25;;;;;;;4.30;2.08;;;;;;;6.11;95.10;98573.07;1731033;81;21031;-82
2022/12/30 00:34:28;;;;;;;4.37;1.90;;;;;;;6.48;95.82;98607.97;1733315;81;20959;-83
2022/12/30 00:36:55;;;;;;;3.55;1.92;;;;;;;6.57;95.60;98621.41;1759886;80;21031;-83
2022/12/30 00:39:22;;;;;;;6.50;2.40;;;;;;;6.57;95.23;98609.28;1757851;80;21455;-82
2022/12/30 00:44:33;;;;;;;5.65;2.30;;;;;;;6.30;94.34;98603.66;1761030;80;20949;-83
2022/12/30 00:47:00;;;;;;;3.60;2.00;;;;;;;6.11;94.27;98598.98;1753978;79;20963;-83
2022/12/30 00:57:41;;;;;;;5.40;2.33;;;;;;;5.58;94.53;98609.10;1758300;80;20986;-83
2022/12/30 01:00:11;;;;;;;3.72;2.08;;;;;;;5.54;94.67;98602.83;1753256;80;21089;-83
2022/12/30 01:02:37;;;;;;;3.75;2.50;;;;;;;5.49;94.58;98617.28;1757441;80;21055;-83
2022/12/30 01:05:06;;;;;;;5.30;2.37;;;;;;;5.44;94.56;98624.41;1755826;80;21077;-83
2022/12/30 01:07:32;;;;;;;4.17;2.10;;;;;;;5.37;94.59;98625.11;1751453;80;21499;-82
2022/12/30 01:09:59;;;;;;;10.10;2.40;;;;;;;5.33;94.60;98616.27;1750480;80;20961;-83
2022/12/30 01:12:26;;;;;;;5.00;1.97;;;;;;;5.32;94.61;98611.98;1760546;80;20996;-83
2022/12/30 01:14:55;;;;;;;2.47;1.77;;;;;;;5.33;94.75;98621.45;1759898;80;21631;-83
2022/12/30 01:17:29;;;;;;;3.47;2.08;;;;;;;5.33;94.82;98623.58;1757229;80;21357;-83
2022/12/30 01:19:59;;;;;;;5.03;1.90;;;;;;;5.38;95.01;98623.39;1754438;80;20982;-83
2022/12/30 01:22:26;;;;;;;5.37;2.30;;;;;;;5.40;94.98;98628.02;1756293;80;21036;-82
2022/12/30 01:24:53;;;;;;;4.10;2.37;;;;;;;5.45;95.26;98628.67;1758957;80;21012;-83
2022/12/30 01:27:20;;;;;;;3.67;2.25;;;;;;;5.56;95.42;98617.38;1759969;80;21445;-83
2022/12/30 01:29:46;;;;;;;3.45;2.00;;;;;;;5.66;95.67;98624.73;1753884;80;21572;-84
2022/12/30 01:32:18;;;;;;;4.60;2.05;;;;;;;5.76;95.56;98620.83;1755362;80;21581;-84
2022/12/30 01:34:45;;;;;;;4.65;1.87;;;;;;;5.82;95.49;98618.83;1751407;80;20978;-84
2022/12/30 01:37:12;;;;;;;2.65;1.67;;;;;;;5.87;95.42;98616.00;1747609;80;21094;-84
2022/12/30 01:39:40;;;;;;;3.92;1.75;;;;;;;5.90;95.28;98615.86;1743919;80;21110;-83
2022/12/30 01:42:23;;;;;;;2.87;1.60;;;;;;;5.93;95.25;98612.29;1750814;80;21008;-83
2022/12/30 01:45:22;;;;;;;4.22;2.12;;;;;;;5.95;95.35;98608.75;1747530;80;21019;-83
2022/12/30 01:48:00;;;;;;;4.62;2.00;;;;;;;6.01;95.48;98608.92;1745227;80;21254;-83
2022/12/30 01:50:35;;;;;;;2.80;1.50;;;;;;;6.11;95.64;98615.84;1748412;80;21106;-83
2022/12/30 01:53:32;;;;;;;;;;;;;;;;;;;;;
2022/12/30 01:56:53;;;;;;;3.42;1.70;;;;;;;6.27;95.70;98614.17;1566552;89;21048;-83
2022/12/30 01:59:40;;;;;;;5.00;1.80;;;;;;;6.37;95.84;98614.13;1532346;91;21549;-84
2022/12/30 02:02:07;;;;;;;2.40;1.25;;;;;;;6.44;95.73;98601.27;1536087;92;21084;-84
2022/12/30 02:04:34;;;;;;;3.58;1.60;;;;;;;6.48;95.69;98606.67;1535181;91;21118;-83
2022/12/30 02:07:36;;;;;;;1.52;1.30;;;;;;;6.50;95.62;98612.64;1531149;91;21509;-84
2022/12/30 02:10:03;;;;;;;5.15;1.80;;;;;;;6.52;95.69;98610.41;1509296;92;21456;-83
2022/12/30 02:16:18;;;;;;;1.45;1.10;;;;;;;6.53;95.56;98603.04;1473794;95;21029;-83
2022/12/30 02:19:09;;;;;;;2.02;1.35;;;;;;;6.50;95.49;98600.97;1468801;95;21074;-83
2022/12/30 02:22:07;;;;;;;2.92;1.50;;;;;;;6.51;95.62;98596.62;1467681;96;21108;-83
2022/12/30 02:24:48;;;;;;;3.83;1.75;;;;;;;6.55;95.55;98598.59;1467123;96;21077;-83
2022/12/30 02:27:44;;;;;;;6.95;2.75;;;;;;;6.47;95.20;98597.23;1468098;96;20983;-83
2022/12/30 02:30:25;;;;;;;3.50;1.65;;;;;;;6.38;95.11;98593.77;1422201;98;21680;-84
2022/12/30 02:33:27;;;;;;;3.25;1.65;;;;;;;6.36;95.37;98598.20;1500081;90;20996;-83
2022/12/30 02:36:20;;;;;;;3.92;1.47;;;;;;;6.42;95.66;98600.50;1575166;88;21042;-84
2022/12/30 02:39:04;;;;;;;2.72;1.80;;;;;;;6.44;95.62;98601.27;1598392;88;20960;-83
2022/12/30 02:44:41;;;;;;;7.75;2.40;;;;;;;6.54;95.72;98604.70;1616506;87;21001;-83
2022/12/30 02:47:22;;;;;;;3.85;2.00;;;;;;;6.56;95.69;98599.83;1624459;85;21018;-83
2022/12/30 02:52:49;;;;;;;3.22;1.22;;;;;;;6.70;95.71;98610.36;1616807;86;21012;-83
2022/12/30 02:55:17;;;;;;;3.80;1.72;;;;;;;6.75;95.81;98610.15;1629680;86;21005;-84
2022/12/30 02:57:44;;;;;;;4.55;1.75;;;;;;;6.80;95.77;98614.63;1612017;86;21018;-82
2022/12/30 03:06:32;;;;;;;3.12;1.60;;;;;;;6.89;95.74;98618.09;1655133;85;21041;-83
2022/12/30 03:09:19;;;;;;;3.12;1.60;;;;;;;6.91;95.71;98617.99;1657288;85;21018;-83
2022/12/30 03:12:00;;;;;;;3.37;1.60;;;;;;;6.95;95.79;98604.80;1705348;81;21552;-82
2022/12/30 03:14:40;;;;;;;3.10;1.22;;;;;;;6.93;95.64;98601.43;1757097;80;21025;-84
2022/12/30 03:17:17;;;;;;;3.60;1.75;;;;;;;6.94;95.64;98595.31;1757210;80;20994;-83
2022/12/30 03:19:47;;;;;;;3.00;1.30;;;;;;;6.98;95.71;98603.81;1758802;80;21096;-83
2022/12/30 03:27:54;;;;;;;4.62;1.62;;;;;;;7.02;95.68;98604.48;1758523;80;20986;-83
2022/12/30 03:30:20;;;;;;;3.20;1.92;;;;;;;7.06;95.79;98603.42;1750699;80;20955;-83
2022/12/30 03:32:47;;;;;;;2.30;1.23;;;;;;;7.08;95.77;98597.67;1758308;80;20968;-82
2022/12/30 03:35:14;;;;;;;3.40;1.60;;;;;;;7.13;95.94;98602.18;1751969;80;21062;-83
2022/12/30 03:37:51;;;;;;;1.17;1.07;;;;;;;7.11;95.68;98607.90;1723931;81;21090;-83
2022/12/30 03:40:47;;;;;;;3.65;1.62;;;;;;;7.15;95.82;98603.78;1722575;81;20947;-83
2022/12/30 03:43:15;;;;;;;4.45;1.55;;;;;;;7.16;95.82;98597.66;1725059;81;20971;-83
2022/12/30 03:45:43;;;;;;;2.55;1.10;;;;;;;7.17;95.83;98608.45;1726581;82;21448;-83
2022/12/30 03:48:10;;;;;;;3.33;1.40;;;;;;;7.21;95.81;98615.61;1709341;81;20993;-83
2022/12/30 03:50:36;;;;;;;4.35;1.30;;;;;;;7.22;95.74;98606.89;1720242;81;20987;-83
2022/12/30 03:53:03;;;;;;;3.10;1.25;;;;;;;7.23;95.79;98612.95;1722788;80;21471;-83
2022/12/30 03:55:37;;;;;;;2.85;1.20;;;;;;;7.27;95.78;98614.45;1718506;81;21424;-83
2022/12/30 03:58:04;;;;;;;2.33;1.60;;;;;;;7.32;95.87;98616.36;1724660;81;21003;-83
2022/12/30 04:00:32;;;;;;;3.02;1.05;;;;;;;7.34;95.77;98614.07;1721600;81;20961;-83
2022/12/30 04:02:58;;;;;;;;;;;;;;;7.33;95.73;98620.16;1730954;81;21071;-83
2022/12/30 04:05:25;;;;;;;1.67;1.00;;;;;;;7.30;95.60;98615.13;1723336;81;20138;-83
2022/12/30 04:08:01;;;;;;;;;;;;;;;;;;;;;
2022/12/30 04:10:22;;;;;;;1.70;0.93;;;;;;;7.30;95.74;98628.11;1722755;81;21210;-83
2022/12/30 04:12:49;;;;;;;3.15;1.10;;;;;;;7.31;95.63;98629.81;1719333;82;21029;-83
2022/12/30 04:15:15;;;;;;;3.02;1.10;;;;;;;7.28;95.54;98632.57;1724155;81;21034;-83
2022/12/30 04:17:42;;;;;;;2.80;1.10;;;;;;;7.31;95.84;98627.22;1724280;81;21057;-83
2022/12/30 04:20:09;;;;;;;2.02;1.10;;;;;;;7.31;95.66;98633.70;1721328;81;21035;-84
2022/12/30 04:22:36;;;;;;;2.40;1.30;;;;;;;7.32;95.71;98634.08;1725900;81;22109;-84
2022/12/30 04:25:03;;;;;;;2.03;1.10;;;;;;;7.36;95.77;98625.20;1725996;81;21528;-83
2022/12/30 04:27:30;;;;;;;2.00;1.00;;;;;;;7.37;95.49;98624.30;1724454;81;20970;-83
2022/12/30 04:29:56;;;;;;;2.05;1.27;;;;;;;7.37;95.45;98626.89;1727465;81;20931;-83
2022/12/30 04:32:23;;;;;;;1.42;0.80;;;;;;;7.34;95.36;98625.76;1723724;81;21074;-83
2022/12/30 04:34:51;;;;;;;3.20;1.12;;;;;;;7.35;95.53;98631.31;1706077;82;21457;-83
2022/12/30 04:37:18;;;;;;;1.45;0.82;;;;;;;7.39;95.50;98638.05;1721603;80;21439;-83
2022/12/30 04:39:44;;;;;;;1.77;1.20;;;;;;;7.39;95.31;98636.75;1721617;81;20958;-83
2022/12/30 04:42:11;;;;;;;6.97;3.92;;;;;;;7.40;95.36;98651.41;1725025;81;20971;-83
2022/12/30 04:44:38;;;;;;;2.67;1.90;;;;;;;7.40;95.29;98655.30;1722969;81;20974;-83
2022/12/30 04:47:04;;;;;;;3.83;2.10;;;;;;;7.40;95.21;98665.69;1722488;81;20959;-83
2022/12/30 04:49:31;;;;;;;4.17;1.70;;;;;;;7.36;95.15;98671.94;1721319;81;21533;-83
2022/12/30 04:51:57;;;;;;;3.90;1.22;;;;;;;7.33;95.11;98678.59;1716517;80;21492;-83
2022/12/30 04:54:24;;;;;;;2.45;0.90;;;;;;;7.29;95.04;98687.92;1722650;81;21554;-83
2022/12/30 04:56:50;;;;;;;1.07;0.93;;;;;;;7.19;94.77;98691.42;1721028;81;20983;-83
2022/12/30 04:59:17;;;;;;;0.78;0.50;;;;;;;7.04;94.73;98690.91;1720398;81;20996;-83
2022/12/30 05:01:44;;;;;;;1.77;1.22;;;;;;;6.95;94.66;98688.30;1719981;81;21003;-83
2022/12/30 05:04:10;;;;;;;0.85;0.50;;;;;;;6.85;94.66;98686.59;1719568;81;20987;-83
2022/12/30 05:06:37;;;;;;;3.15;1.95;;;;;;;6.79;94.64;98692.09;1720295;81;20998;-82
2022/12/30 05:09:03;;;;;;;12.68;4.95;;;;;;;6.76;94.71;98687.05;1723860;81;21012;-83
2022/12/30 05:11:30;;;;;;;3.60;2.00;;;;;;;6.75;94.65;98689.70;1722977;81;21017;-83
2022/12/30 05:13:56;;;;;;;2.65;1.10;;;;;;;6.73;94.67;98694.98;1720238;81;21051;-84
2022/12/30 05:16:24;;;;;;;1.22;0.80;;;;;;;6.73;94.71;98692.39;1720917;81;21104;-83
2022/12/30 05:18:50;;;;;;;2.42;0.88;;;;;;;6.72;94.64;98697.17;1722004;81;21062;-83
2022/12/30 05:21:17;;;;;;;1.45;0.70;;;;;;;6.72;94.72;98698.47;1722768;81;20950;-83
2022/12/30 05:26:28;;;;;;;2.33;0.90;;;;;;;6.77;94.82;98708.64;1719990;82;20975;-83
2022/12/30 05:28:55;;;;;;;2.70;1.40;;;;;;;6.76;94.71;98707.81;1716826;82;20985;-84
2022/12/30 05:31:21;;;;;;;1.70;0.97;;;;;;;6.76;94.69;98713.00;1718862;82;21511;-83
2022/12/30 05:33:48;;;;;;;2.52;1.20;;;;;;;6.76;94.81;98731.16;1723097;81;21432;-84
2022/12/30 05:36:15;;;;;;;2.85;2.27;;;;;;;6.75;94.83;98724.30;1721544;81;21769;-84
2022/12/30 05:38:41;;;;;;;1.90;1.00;;;;;;;6.73;94.68;98718.33;1736211;81;20964;-83
2022/12/30 05:41:10;;;;;;;2.33;1.45;;;;;;;6.68;94.44;98710.76;1734117;81;20976;-83
2022/12/30 05:43:36;;;;;;;2.27;1.27;;;;;;;6.59;94.35;98719.45;1734865;81;20984;-83
2022/12/30 05:46:03;;;;;;;2.50;1.90;;;;;;;6.52;94.24;98731.00;1729514;81;21029;-83
2022/12/30 05:48:30;;;;;;;3.08;1.42;;;;;;;6.47;94.37;98733.37;1734688;81;21589;-83
2022/12/30 05:50:56;;;;;;;3.62;1.10;;;;;;;6.47;94.54;98735.97;1732554;81;21051;-83
2022/12/30 05:53:23;;;;;;;1.32;1.10;;;;;;;6.50;94.65;98741.00;1727671;81;21072;-82
2022/12/30 05:55:50;;;;;;;4.92;0.98;;;;;;;6.52;94.39;98737.48;1734266;81;20982;-83
2022/12/30 05:58:16;;;;;;;1.75;0.90;;;;;;;6.45;94.27;98741.66;1736533;81;20949;-83
2022/12/30 06:00:45;;;;;;;2.08;1.22;;;;;;;6.38;94.16;98744.14;1733396;81;21019;-83
2022/12/30 06:03:11;;;;;;;4.80;1.30;;;;;;;6.38;94.39;98752.38;1729474;81;21404;-83
2022/12/30 06:05:38;;;;;;;5.45;1.72;;;;;;;6.41;94.45;98754.40;1733630;81;21595;-83
2022/12/30 06:08:05;;;;;;;4.95;1.52;;;;;;;6.44;94.62;98762.03;1731619;81;21627;-83
2022/12/30 06:10:32;;;;;;;4.78;1.50;;;;;;;6.48;94.66;98755.78;1735494;81;21427;-84
2022/12/30 06:12:58;;;;;;;3.87;1.50;;;;;;;6.51;94.54;98757.40;1733849;81;21858;-82
2022/12/30 06:15:25;;;;;;;4.60;1.60;;;;;;;6.56;94.62;98754.61;1734259;81;21030;-82
2022/12/30 06:17:51;;;;;;;4.75;1.80;;;;;;;6.56;94.47;98757.20;1729949;81;21022;-82
2022/12/30 06:20:21;;;;;;;4.83;1.55;;;;;;;6.55;94.50;98762.81;1729446;81;20957;-83
2022/12/30 06:22:51;;;;;;;5.97;2.40;;;;;;;6.57;94.45;98766.65;1732879;81;21024;-83
2022/12/30 06:25:26;;;;;;;5.62;1.52;;;;;;;6.57;94.40;98774.43;1729399;81;22123;-82
2022/12/30 06:27:53;;;;;;;2.83;1.27;;;;;;;6.58;94.41;98776.10;1735214;81;20967;-82
2022/12/30 06:30:20;;;;;;;3.97;2.00;;;;;;;6.57;94.38;98789.99;1737788;81;21500;-83
2022/12/30 06:32:46;;;;;;;4.78;1.57;;;;;;;6.54;94.27;98788.38;1734278;81;21548;-83
2022/12/30 06:35:14;;;;;;;5.22;1.60;;;;;;;6.54;94.35;98791.43;1718519;81;20951;-82
2022/12/30 06:37:41;;;;;;;5.47;1.67;;;;;;;6.50;94.14;98790.28;1750165;80;21061;-84
2022/12/30 06:40:16;;;;;;;3.77;1.12;;;;;;;6.45;94.02;98794.83;1756912;80;21582;-82
2022/12/30 06:42:45;;;;;;;5.22;1.20;;;;;;;6.39;94.00;98805.48;1751507;80;21557;-83
2022/12/30 06:45:11;;;;;;;4.03;1.60;;;;;;;6.33;94.13;98807.48;1758842;80;21065;-82
2022/12/30 06:47:38;;;;;;;6.60;1.70;;;;;;;6.28;94.27;98805.12;1755011;80;21051;-83
2022/12/30 06:50:10;;;;;;;5.58;1.50;;;;;;;6.31;94.43;98817.94;1759695;80;21065;-83
2022/12/30 06:55:51;;;;;;;2.40;1.30;;;;;;;6.40;94.53;98824.47;1709223;80;21023;-83
2022/12/30 06:58:17;;;;;;;4.45;1.55;;;;;;;6.42;94.46;98826.08;1759011;80;20982;-83
2022/12/30 07:00:48;;;;;;;3.35;1.10;;;;;;;6.46;94.46;98831.97;1756038;80;21080;-83
2022/12/30 07:03:14;;;;;;;4.72;1.32;;;;;;;6.46;94.41;98829.38;1755802;80;21038;-82
2022/12/30 07:05:51;;;;;;;6.73;1.77;;;;;;;6.46;94.44;98827.61;1754897;80;21051;-82
2022/12/30 07:08:17;;;;;;;9.13;1.30;;;;;;;6.48;94.47;98830.98;1722393;80;21457;-85
2022/12/30 07:10:46;;;;;;;6.55;1.62;;;;;;;6.52;94.42;98838.62;1761696;80;21812;-81
2022/12/30 07:13:20;;;;;;;7.45;1.50;;;;;;;6.54;94.45;98842.00;1750302;80;21049;-83
2022/12/30 07:15:45;;;;;;;3.52;1.50;;;;;;;6.49;94.30;98849.52;1756751;80;21128;-83
2022/12/30 07:18:14;;;;;;;5.67;1.67;;;;;;;6.49;94.30;98859.89;1756641;80;21086;-83
2022/12/30 07:20:59;;;;;;;5.62;1.60;;;;;;;6.49;94.27;98866.37;1753993;80;21733;-83
2022/12/30 07:23:46;;;;;;;3.90;1.57;;;;;;;6.49;94.24;98870.72;1735657;80;20985;-83
2022/12/30 07:26:10;;;;;;;5.03;1.87;;;;;;;6.48;94.25;98869.89;1751321;80;20968;-85
2022/12/30 07:28:38;;;;;;;5.72;1.45;;;;;;;6.48;94.22;98876.38;1756549;80;21017;-82
2022/12/30 07:31:14;;;;;;;5.05;1.70;;;;;;;6.46;94.09;98875.59;1751941;80;21034;-84
2022/12/30 07:34:24;;;;;;;;;;;;;;;;;;;;;
2022/12/30 07:37:04;;;;;;;5.58;2.00;;;;;;;6.46;94.11;98884.66;1513756;92;21122;-82
2022/12/30 07:39:38;;;;;;;6.30;2.37;;;;;;;6.45;94.17;98895.96;1517634;93;21128;-81
2022/12/30 07:42:27;;;;;;;3.58;1.85;;;;;;;6.49;94.26;98901.38;1514899;92;21030;-84
2022/12/30 07:44:57;;;;;;;3.22;2.00;;;;;;;6.57;94.39;98906.70;1516272;92;21487;-84
2022/12/30 07:47:49;;;;;;;;;;;;;;;;;;;;;
2022/12/30 07:50:07;;;;;;;5.05;1.98;;;;;;;6.63;94.24;98906.43;1512253;92;21070;-89
2022/12/30 07:52:33;;;;;;;6.42;1.92;;;;;;;6.66;94.26;98912.78;1512397;93;21069;-84
2022/12/30 07:55:03;;;;;;;4.10;2.47;;;;;;;6.67;94.21;98915.78;1496201;93;21073;-85
2022/12/30 07:57:29;;;;;;;4.85;1.80;;;;;;;6.70;94.12;98910.45;1515987;92;21068;-86
2022/12/30 07:59:56;;;;;;;5.50;1.83;;;;;;;6.72;94.10;98912.50;1512312;93;21581;-85
2022/12/30 08:02:23;;;;;;;6.80;1.90;;;;;;;6.75;94.10;98911.52;1516960;92;21526;-84
2022/12/30 08:04:58;;;;;;;5.97;1.52;;;;;;;6.79;94.19;98917.81;1520238;92;21477;-86
2022/12/30 08:07:25;;;;;;;6.90;2.02;;;;;;;6.87;94.28;98923.51;1511381;92;21054;-86
2022/12/30 08:09:51;;;;;;;7.25;1.85;;;;;;;6.93;94.24;98920.63;1517835;92;21053;-86
2022/12/30 08:12:18;;;;;;;4.67;2.02;;;;;;;6.97;94.10;98934.30;1543475;89;20976;-84
2022/12/30 08:14:45;;;;;;;4.08;1.57;;;;;;;6.99;94.05;98944.63;1736802;80;21046;-86
2022/12/30 08:17:12;;;;;;;7.65;1.72;;;;;;;7.02;94.19;98943.19;1752350;80;21459;-83
2022/12/30 08:19:38;;;;;;;5.85;1.90;;;;;;;7.06;94.03;98953.84;1746475;80;21049;-82
2022/12/30 08:22:05;;;;;;;5.25;1.65;;;;;;;7.09;93.99;98942.02;1759953;80;21044;-89
2022/12/30 08:24:32;;;;;;;5.50;1.70;;;;;;;7.06;93.77;98951.24;1753521;80;20952;-84
2022/12/30 08:26:58;;;;;;;5.22;1.20;;;;;;;7.06;93.77;98951.24;1750273;80;21476;-85
2022/12/30 08:29:25;;;;;;;5.77;1.73;;;;;;;7.10;93.74;98956.20;1754700;80;21055;-91
2022/12/30 08:31:58;;;;;;;4.80;1.50;;;;;;;7.12;93.72;98967.83;1750013;80;20983;-86
2022/12/30 08:34:25;;;;;;;4.20;1.12;;;;;;;7.08;93.61;98963.21;1750834;80;21459;-86
2022/12/30 08:36:55;;;;;;;3.05;1.17;;;;;;;7.08;93.70;98967.56;1757952;80;21478;-92
2022/12/30 08:39:21;;;;;;;4.37;1.45;;;;;;;7.13;93.73;98973.40;1752540;80;20989;-87
2022/12/30 08:41:50;;;;;;;3.58;1.45;;;;;;;7.17;93.56;98971.07;1752794;80;21499;-87
2022/12/30 08:44:17;;;;;;;6.22;1.45;;;;;;;7.16;93.37;98974.09;1752158;80;20976;-87
2022/12/30 08:46:47;;;;;;;4.97;1.40;;;;;;;7.20;93.45;98973.95;1753928;80;21610;-89
2022/12/30 08:49:13;;;;;;;3.33;1.40;;;;;;;7.23;93.44;98977.27;1751881;80;21120;-89
2022/12/30 08:51:48;;;;;;;4.92;1.35;;;;;;;7.22;93.21;98982.52;1757928;80;21025;-90
2022/12/30 08:54:21;;;;;;;6.20;2.67;;;;;;;7.22;93.19;98985.95;1750459;80;21034;-89
2022/12/30 08:56:54;;;;;;;4.30;1.20;;;;;;;7.17;93.03;98981.45;1744722;80;21900;-86
2022/12/30 08:59:20;;;;;;;6.60;1.85;;;;;;;7.16;92.95;98981.88;1744924;80;20999;-85
2022/12/30 09:01:48;;;;;;;6.15;1.90;;;;;;;7.10;92.89;98991.71;1738729;80;21064;-85
2022/12/30 09:04:15;;;;;;;8.23;1.80;;;;;;;7.08;92.79;98998.72;1744849;80;21094;-84
2022/12/30 09:06:45;;;;;;;7.33;1.87;;;;;;;7.05;92.77;98989.77;1756602;80;21056;-83
2022/12/30 09:09:14;;;;;;;3.17;1.17;;;;;;;7.03;92.71;98990.28;1753397;80;21022;-85
2022/12/30 09:12:09;;;;;;;5.70;2.08;;;;;;;7.07;92.92;98997.05;1751863;80;21011;-87
2022/12/30 09:14:35;;;;;;;3.90;1.40;;;;;;;7.11;92.87;99003.77;1745461;80;21124;-83
2022/12/30 09:17:02;;;;;;;3.25;1.37;;;;;;;7.20;92.82;98986.94;1745045;80;21697;-82
2022/12/30 09:19:28;;;;;;;5.75;1.50;;;;;;;7.23;92.71;99005.84;1750208;79;21038;-83
2022/12/30 09:22:24;;;;;;;7.23;2.53;;;;;;;7.23;92.47;99001.95;1703318;82;21532;-83
2022/12/30 09:24:50;;;;;;;7.28;1.87;;;;;;;7.27;92.64;99017.75;1697589;82;21101;-85
2022/12/30 09:27:19;;;;;;;7.60;1.95;;;;;;;7.32;92.49;99021.45;1696343;82;21051;-84
2022/12/30 09:29:49;;;;;;;4.08;1.72;;;;;;;7.34;92.43;99003.59;1696116;82;21490;-84
2022/12/30 09:32:15;;;;;;;4.62;1.70;;;;;;;7.38;92.36;99010.32;1698043;82;21477;-84
2022/12/30 09:34:44;;;;;;;7.65;1.92;;;;;;;7.46;92.45;99009.14;1701595;82;20956;-84
2022/12/30 09:37:10;;;;;;;7.35;1.92;;;;;;;7.51;92.30;99014.98;1697117;82;20982;-82
2022/12/30 09:39:40;;;;;;;3.63;1.53;;;;;;;7.56;92.24;99015.58;1753399;80;20937;-86
2022/12/30 09:45:41;;;;;;;8.65;2.58;;;;;;;7.56;92.03;99021.64;1664706;83;21042;-89
2022/12/30 09:48:09;;;;;;;6.60;1.75;;;;;;;7.58;91.93;99021.56;1659003;84;21077;-82
2022/12/30 09:50:53;;;;;;;4.55;1.90;;;;;;;7.65;91.97;99022.97;1658120;84;21018;-82
2022/12/30 09:53:55;;;;;;;;;;;;;;;;;;;;;
2022/12/30 09:56:32;;;;;;;9.13;2.50;;;;;;;7.58;91.29;99026.75;1657793;84;20995;-87
2022/12/30 09:59:40;;;;;;;;;;;;;;;;;;;;;
2022/12/30 10:05:15;;;;;;;;;;;;;;;;;;;;;
2022/12/30 10:08:01;;;;;;;7.92;2.10;;;;;;;7.54;90.99;99027.82;1540796;91;21597;-91
2022/12/30 10:11:13;;;;;;;5.25;2.10;;;;;;;7.50;90.85;99024.50;1546895;91;21046;-84
2022/12/30 10:13:51;;;;;;;6.33;1.75;;;;;;;7.47;90.54;99025.10;1546914;91;21078;-83
2022/12/30 10:16:41;;;;;;;5.15;2.25;;;;;;;7.35;90.20;99019.55;1547279;91;20997;-83
2022/12/30 10:19:52;;;;;;;8.63;2.52;;;;;;;7.33;90.35;99029.62;1544646;91;21090;-83
2022/12/30 10:22:57;;;;;;;4.00;1.42;;;;;;;7.33;90.32;99022.67;1579230;87;21709;-83
2022/12/30 10:25:55;;;;;;;9.15;2.12;;;;;;;7.26;89.95;99010.89;1614367;87;20995;-83
2022/12/30 10:28:46;;;;;;;5.28;2.33;;;;;;;7.10;89.56;99021.11;1586463;89;21025;-83
2022/12/30 10:31:27;;;;;;;12.05;2.22;;;;;;;7.02;89.60;99009.38;1540711;92;21065;-83
2022/12/30 10:34:15;;;;;;;7.17;1.87;;;;;;;6.95;89.50;99014.84;1559048;89;21069;-82
2022/12/30 10:36:52;;;;;;;8.43;2.55;;;;;;;6.87;89.25;99032.50;1556267;88;21036;-83
2022/12/30 10:39:22;;;;;;;7.15;2.15;;;;;;;6.87;89.39;99035.09;1592448;88;21042;-84
2022/12/30 10:42:09;;;;;;;4.55;1.52;;;;;;;6.93;89.42;99039.17;1657281;83;21061;-84
2022/12/30 10:45:05;;;;;;;8.38;2.20;;;;;;;6.97;89.24;99047.66;1680018;83;20948;-85
2022/12/30 10:48:00;;;;;;;7.42;2.47;;;;;;;7.01;89.08;99054.42;1678005;83;20995;-84
2022/12/30 10:50:37;;;;;;;6.30;2.25;;;;;;;7.10;89.11;99049.66;1673620;83;21512;-84
2022/12/30 10:53:15;;;;;;;9.63;2.60;;;;;;;7.16;89.01;99048.09;1681398;83;21018;-82
2022/12/30 10:55:49;;;;;;;;;;;;;;;7.12;88.62;99057.40;1672422;83;21003;-85
2022/12/30 10:58:37;;;;;;;7.43;2.10;;;;;;;7.11;88.63;99058.28;1658800;83;20168;-84
2022/12/30 11:01:08;;;;;;;5.85;2.00;;;;;;;7.08;88.51;99059.72;1681333;83;21016;-83
2022/12/30 11:03:42;;;;;;;6.50;2.00;;;;;;;7.09;88.58;99041.95;1689227;83;20942;-83
2022/12/30 11:06:42;;;;;;;8.13;2.22;;;;;;;7.11;88.59;99054.39;1717947;81;21001;-82
2022/12/30 11:09:26;;;;;;;8.48;2.00;;;;;;;7.09;88.52;99047.15;1713992;81;20983;-93
2022/12/30 11:15:11;;;;;;;6.65;1.72;;;;;;;7.17;88.36;99045.06;1712843;81;21036;-94
2022/12/30 11:17:55;;;;;;;8.80;2.17;;;;;;;7.19;88.14;99043.22;1704064;81;21086;-96
2022/12/30 11:20:42;;;;;;;8.88;2.40;;;;;;;7.19;87.98;99045.81;1712696;82;21024;-96
2022/12/30 11:29:39;;;;;;;9.78;2.85;;;;;;;7.28;87.96;99070.09;1529732;89;21603;-95
2022/12/30 11:32:10;;;;;;;9.93;3.02;;;;;;;7.28;87.58;99073.99;1560896;90;20978;-93
2022/12/30 11:38:39;;;;;;;;;;;;;;;7.22;87.35;99082.03;1655067;84;21197;-90
2022/12/30 11:41:27;;;;;;;6.42;1.75;;;;;;;7.21;87.36;99088.14;1653023;84;20592;-91
2022/12/30 11:44:17;;;;;;;8.95;2.70;;;;;;;7.25;87.44;99102.66;1624367;84;21059;-91
2022/12/30 11:46:45;;;;;;;6.37;2.10;;;;;;;7.29;87.31;99100.34;1649029;84;21028;-95
2022/12/30 11:49:48;;;;;;;6.42;1.98;;;;;;;7.28;86.98;99096.50;1641548;84;21034;-89
2022/12/30 11:52:31;;;;;;;7.30;2.47;;;;;;;7.20;86.67;99092.95;1638115;85;22202;-90
2022/12/30 11:55:36;;;;;;;7.97;1.60;;;;;;;7.00;86.27;99087.33;1636644;85;21471;-87
2022/12/30 11:58:08;;;;;;;8.48;1.92;;;;;;;6.81;86.03;99114.50;1645473;85;21482;-87
2022/12/30 12:00:43;;;;;;;9.28;2.75;;;;;;;6.65;85.91;99112.15;1644233;85;21644;-87
2022/12/30 12:03:35;;;;;;;9.65;2.42;;;;;;;6.53;85.80;99115.25;1644962;84;21017;-86
2022/12/30 12:06:16;;;;;;;7.20;2.33;;;;;;;6.42;85.69;99100.95;1520086;92;21101;-89
2022/12/30 12:09:14;;;;;;;6.67;2.37;;;;;;;6.34;85.57;99110.78;1524844;91;21551;-88
2022/12/30 12:11:47;;;;;;;15.78;5.60;;;;;;;6.28;85.48;99113.62;1522198;92;21035;-89
2022/12/30 12:14:31;;;;;;;11.22;3.70;;;;;;;6.26;85.58;99106.36;1508560;92;21529;-89
2022/12/30 12:18:00;;;;;;;11.53;4.00;;;;;;;6.28;85.50;99131.78;1526332;92;21048;-89
2022/12/30 12:20:48;;;;;;;7.12;2.15;;;;;;;6.29;85.39;99124.37;1519544;92;21092;-89
2022/12/30 12:24:06;;;;;;;9.18;3.12;;;;;;;6.26;85.21;99120.61;1521164;92;21107;-84
2022/12/30 12:27:11;;;;;;;9.30;2.35;;;;;;;6.24;85.04;99135.38;1529109;92;21514;-87
2022/12/30 12:29:43;;;;;;;5.87;1.80;;;;;;;6.19;84.93;99132.98;1526037;91;21543;-86
2022/12/30 12:32:27;;;;;;;7.67;2.27;;;;;;;6.16;84.83;99145.20;1512429;92;21018;-85
2022/12/30 12:35:17;;;;;;;10.00;2.40;;;;;;;6.13;84.83;99141.42;1478776;90;1996350;-84
2022/12/30 12:38:20;;;;;;;7.58;2.00;;;;;;;6.11;84.80;99149.73;1572246;88;21542;-86
2022/12/30 12:41:30;;;;;;;10.82;2.62;;;;;;;6.09;84.79;99148.94;1585409;89;21065;-87
2022/12/30 12:44:30;;;;;;;8.53;3.10;;;;;;;6.16;84.91;99153.84;1587943;89;20986;-88
2022/12/30 12:47:30;;;;;;;9.85;3.12;;;;;;;6.21;84.81;99153.64;1585042;89;21562;-87
2022/12/30 12:50:29;;;;;;;4.85;2.33;;;;;;;6.24;84.89;99148.34;1583810;89;21570;-87
2022/12/30 12:53:37;;;;;;;11.22;2.67;;;;;;;6.26;84.79;99151.73;1615484;87;21045;-86
2022/12/30 12:56:29;;;;;;;8.80;2.37;;;;;;;6.27;84.73;99159.88;1581640;89;21070;-86
2022/12/30 12:59:48;;;;;;;;;;;;;;;;;;;;;
2022/12/30 13:02:35;;;;;;;8.18;3.55;;;;;;;6.28;84.65;99168.08;1643000;82;20977;-87
2022/12/30 13:05:13;;;;;;;6.22;2.60;;;;;;;6.25;84.56;99173.38;1715192;82;20986;-87
2022/12/30 13:08:16;;;;;;;11.28;3.02;;;;;;;6.23;84.49;99169.99;1711428;82;21464;-86
2022/12/30 13:10:51;;;;;;;8.73;3.35;;;;;;;6.22;84.60;99183.87;1714968;82;21014;-86
2022/12/30 13:13:55;;;;;;;10.18;2.77;;;;;;;6.23;84.52;99186.84;1714194;82;20983;-86
2022/12/30 13:16:32;;;;;;;8.63;3.12;;;;;;;6.22;84.49;99196.83;1712280;82;20974;-86
2022/12/30 13:19:06;;;;;;;11.08;2.70;;;;;;;6.19;84.34;99203.40;1712715;82;21559;-86
2022/12/30 13:21:33;;;;;;;7.03;2.62;;;;;;;6.14;84.34;99198.87;1705229;82;21045;-87
2022/12/30 13:24:07;;;;;;;7.10;2.72;;;;;;;6.09;84.21;99198.19;1705517;81;20986;-86
2022/12/30 13:26:36;;;;;;;9.05;2.60;;;;;;;6.04;84.22;99208.26;1711034;82;21428;-87
2022/12/30 13:29:24;;;;;;;11.10;2.50;;;;;;;6.03;84.30;99205.28;1710204;81;21026;-86
2022/12/30 13:32:13;;;;;;;11.70;3.05;;;;;;;6.10;84.43;99199.86;1702108;82;21776;-85
2022/12/30 13:34:44;;;;;;;8.75;2.40;;;;;;;6.14;84.46;99200.16;1709495;82;21558;-85
2022/12/30 13:37:49;;;;;;;7.55;2.35;;;;;;;6.19;84.32;99202.11;1714792;82;21019;-85
2022/12/30 13:40:16;;;;;;;8.45;2.22;;;;;;;6.17;84.18;99186.63;1689101;83;21685;-86
2022/12/30 13:43:04;;;;;;;;;;;;;;;;;;;;;
2022/12/30 13:45:43;;;;;;;10.28;3.40;;;;;;;5.95;83.82;99191.76;1680496;83;21536;-86
2022/12/30 13:48:15;;;;;;;9.45;2.85;;;;;;;5.84;83.82;99209.41;1683774;82;167584;-90
2022/12/30 13:51:09;;;;;;;8.10;2.50;;;;;;;5.75;83.71;99210.59;1693434;82;21478;-89
2022/12/30 13:54:01;;;;;;;;;;;;;;;;;;;;;